createdAt,value
2019-01-04T00:03:47.923Z,0.20
2019-01-04T00:08:51.319Z,0.20
2019-01-04T00:13:54.764Z,0.10
2019-01-04T00:18:58.259Z,0.10
2019-01-04T00:24:01.639Z,0.10
2019-01-04T00:29:05.019Z,0.10
2019-01-04T00:34:08.406Z,0.10
2019-01-04T00:39:11.792Z,0.10
2019-01-04T00:44:15.179Z,0.10
2019-01-04T00:49:18.567Z,0.10
2019-01-04T00:54:21.930Z,0.10
2019-01-04T00:59:28.400Z,0.10
2019-01-04T01:04:49.472Z,0.10
2019-01-04T01:10:04.596Z,0.00
2019-01-04T01:15:35.284Z,0.00
2019-01-04T01:21:07.331Z,0.00
2019-01-04T01:26:31.499Z,0.00
2019-01-04T01:31:55.900Z,0.00
2019-01-04T01:37:21.992Z,0.00
2019-01-04T01:43:01.499Z,0.00
2019-01-04T01:48:07.522Z,0.00
2019-01-04T01:53:10.916Z,0.00
2019-01-04T01:58:14.307Z,0.00
2019-01-04T02:03:17.699Z,-0.10
2019-01-04T02:08:21.087Z,-0.10
2019-01-04T02:13:24.468Z,-0.10
2019-01-04T02:18:27.855Z,-0.10
2019-01-04T02:23:31.236Z,-0.10
2019-01-04T02:28:34.623Z,-0.10
2019-01-04T02:33:38.000Z,-0.10
2019-01-04T02:38:41.399Z,-0.10
2019-01-04T02:43:44.796Z,-0.10
2019-01-04T02:48:48.175Z,-0.10
2019-01-04T02:53:51.564Z,-0.10
2019-01-04T02:58:54.960Z,-0.10
2019-01-04T03:03:58.344Z,-0.10
2019-01-04T03:09:01.742Z,-0.10
2019-01-04T03:14:05.120Z,-0.10
2019-01-04T03:19:08.512Z,-0.10
2019-01-04T03:24:11.980Z,-0.10
2019-01-04T03:29:15.363Z,-0.10
2019-01-04T03:34:18.745Z,-0.10
2019-01-04T03:39:22.199Z,-0.20
2019-01-04T03:44:25.592Z,-0.20
2019-01-04T03:49:28.971Z,-0.20
2019-01-04T03:54:32.353Z,-0.20
2019-01-04T03:59:35.739Z,-0.30
2019-01-04T04:04:39.118Z,-0.30
2019-01-04T04:09:42.503Z,-0.40
2019-01-04T04:14:45.891Z,-0.40
2019-01-04T04:19:49.288Z,-0.50
2019-01-04T04:24:52.667Z,-0.50
2019-01-04T04:29:56.060Z,-0.60
2019-01-04T04:34:59.447Z,-0.60
2019-01-04T04:40:02.845Z,-0.70
2019-01-04T04:45:06.285Z,-0.70
2019-01-04T04:50:09.664Z,-0.80
2019-01-04T04:55:13.049Z,-0.80
2019-01-04T05:00:16.433Z,-0.90
2019-01-04T05:05:19.824Z,-0.90
2019-01-04T05:10:23.214Z,-1.00
2019-01-04T05:15:26.604Z,-1.00
2019-01-04T05:20:29.979Z,-1.10
2019-01-04T05:25:33.359Z,-1.10
2019-01-04T05:30:36.743Z,-1.10
2019-01-04T05:35:40.128Z,-1.20
2019-01-04T05:40:43.523Z,-1.20
2019-01-04T05:45:46.928Z,-1.20
2019-01-04T05:50:50.311Z,-1.20
2019-01-04T05:55:53.728Z,-1.20
2019-01-04T06:00:57.113Z,-1.20
2019-01-04T06:06:00.497Z,-1.20
2019-01-04T06:11:03.887Z,-1.20
2019-01-04T06:16:07.266Z,-1.20
2019-01-04T06:21:10.654Z,-1.20
2019-01-04T06:26:14.040Z,-1.20
2019-01-04T06:31:17.414Z,-1.20
2019-01-04T06:36:20.807Z,-1.10
2019-01-04T06:41:24.183Z,-1.10
2019-01-04T06:46:27.562Z,-1.10
2019-01-04T06:51:30.952Z,-1.10
2019-01-04T06:56:34.331Z,-1.10
2019-01-04T07:01:37.721Z,-1.00
2019-01-04T07:06:41.110Z,-1.00
2019-01-04T07:11:44.495Z,-1.00
2019-01-04T07:16:47.879Z,-1.00
2019-01-04T07:21:51.263Z,-1.00
2019-01-04T07:26:54.647Z,-0.90
2019-01-04T07:31:58.032Z,-0.90
2019-01-04T07:37:01.425Z,-0.90
2019-01-04T07:42:04.812Z,-0.90
2019-01-04T07:47:08.205Z,-0.80
2019-01-04T07:52:11.591Z,-0.80
2019-01-04T07:57:14.995Z,-0.80
2019-01-04T08:02:39.012Z,-0.70
2019-01-04T08:07:42.443Z,-0.70
2019-01-04T08:12:45.839Z,-0.70
2019-01-04T08:17:49.230Z,-0.70
2019-01-04T08:22:52.610Z,-0.60
2019-01-04T08:27:56.008Z,-0.60
2019-01-04T08:32:59.395Z,-0.50
2019-01-04T08:38:02.796Z,-0.50
2019-01-04T08:43:06.179Z,-0.50
2019-01-04T08:48:09.567Z,-0.40
2019-01-04T08:53:12.959Z,-0.40
2019-01-04T08:58:16.348Z,-0.40
2019-01-04T09:03:19.726Z,-0.30
2019-01-04T09:08:23.147Z,-0.30
2019-01-04T09:13:26.539Z,-0.20
2019-01-04T09:18:29.933Z,-0.20
2019-01-04T09:23:33.316Z,-0.10
2019-01-04T09:28:36.711Z,-0.10
2019-01-04T09:33:40.103Z,0.00
2019-01-04T09:38:46.571Z,0.00
2019-01-04T09:43:49.961Z,0.10
2019-01-04T09:48:53.423Z,0.20
2019-01-04T09:53:56.795Z,0.20
2019-01-04T09:59:00.181Z,0.30
2019-01-04T10:04:03.562Z,0.30
2019-01-04T10:09:07.208Z,0.40
2019-01-04T10:14:10.587Z,0.50
2019-01-04T10:19:13.971Z,0.50
2019-01-04T10:24:17.348Z,0.60
2019-01-04T10:29:20.737Z,0.70
2019-01-04T10:34:24.134Z,0.70
2019-01-04T10:39:27.507Z,0.70
2019-01-04T10:44:30.885Z,0.80
2019-01-04T10:49:34.268Z,0.80
2019-01-04T10:54:37.651Z,0.90
2019-01-04T10:59:41.039Z,0.90
2019-01-04T11:04:44.411Z,0.90
2019-01-04T11:09:47.791Z,1.00
2019-01-04T11:14:51.172Z,1.00
2019-01-04T11:19:54.549Z,1.00
2019-01-04T11:25:33.942Z,1.10
2019-01-04T11:30:40.399Z,1.10
2019-01-04T11:35:46.850Z,1.10
2019-01-04T11:40:55.947Z,1.10
2019-01-04T11:46:02.409Z,1.10
2019-01-04T11:51:11.743Z,1.20
2019-01-04T11:56:15.143Z,1.20
2019-01-04T12:01:18.530Z,1.20
2019-01-04T12:06:21.921Z,1.20
2019-01-04T12:11:25.295Z,1.30
2019-01-04T12:16:28.679Z,1.30
2019-01-04T12:21:32.062Z,1.30
2019-01-04T12:26:35.446Z,1.40
2019-01-04T12:31:38.826Z,1.40
2019-01-04T12:36:42.211Z,1.40
2019-01-04T12:41:45.589Z,1.40
2019-01-04T12:46:48.964Z,1.40
2019-01-04T12:51:52.343Z,1.40
2019-01-04T12:56:55.727Z,1.40
2019-01-04T13:01:59.120Z,1.50
2019-01-04T13:07:02.503Z,1.50
2019-01-04T13:12:05.890Z,1.50
2019-01-04T13:17:09.259Z,1.50
2019-01-04T13:22:12.640Z,1.50
2019-01-04T13:27:16.021Z,1.50
2019-01-04T13:32:19.407Z,1.50
2019-01-04T13:37:22.793Z,1.50
2019-01-04T13:42:26.179Z,1.50
2019-01-04T13:47:32.378Z,1.50
2019-01-04T13:52:34.666Z,1.50
2019-01-04T13:57:38.051Z,1.50
2019-01-04T14:02:41.441Z,1.50
2019-01-04T14:07:44.829Z,1.50
2019-01-04T14:12:48.203Z,1.50
2019-01-04T14:17:51.587Z,1.50
2019-01-04T14:22:54.973Z,1.50
2019-01-04T14:27:58.351Z,1.50
2019-01-04T14:33:01.731Z,1.40
2019-01-04T14:38:05.104Z,1.40
2019-01-04T14:43:08.512Z,1.40
2019-01-04T14:48:11.894Z,1.40
2019-01-04T14:53:15.284Z,1.40
2019-01-04T14:58:18.659Z,1.30
2019-01-04T15:03:22.039Z,1.30
2019-01-04T15:08:25.429Z,1.30
2019-01-04T15:13:28.816Z,1.30
2019-01-04T15:18:32.203Z,1.30
2019-01-04T15:23:35.582Z,1.20
2019-01-04T15:28:38.962Z,1.20
2019-01-04T15:33:42.344Z,1.20
2019-01-04T15:38:45.718Z,1.20
2019-01-04T15:43:49.098Z,1.10
2019-01-04T15:48:52.491Z,1.10
2019-01-04T15:53:55.867Z,1.10
2019-01-04T15:58:59.251Z,1.10
2019-01-04T16:04:02.635Z,1.10
2019-01-04T16:09:06.660Z,1.10
2019-01-04T16:14:10.043Z,1.10
2019-01-04T16:19:13.432Z,1.10
2019-01-04T16:24:16.832Z,1.00
2019-01-04T16:29:20.224Z,1.00
2019-01-04T16:34:23.603Z,1.00
2019-01-04T16:39:27.016Z,1.00
2019-01-04T16:44:30.378Z,1.00
2019-01-04T16:49:35.392Z,1.00
2019-01-04T16:54:38.770Z,1.00
2019-01-04T16:59:42.143Z,1.00
2019-01-04T17:04:45.530Z,1.00
2019-01-04T17:09:48.989Z,1.00
2019-01-04T17:14:52.382Z,1.00
2019-01-04T17:19:55.780Z,1.00
2019-01-04T17:24:59.157Z,0.90
2019-01-04T17:30:02.611Z,0.90
2019-01-04T17:35:06.162Z,1.00
2019-01-04T17:40:09.913Z,0.90
2019-01-04T17:45:13.290Z,0.90
2019-01-04T17:50:16.668Z,0.90
2019-01-04T17:55:20.046Z,0.90
2019-01-04T18:00:23.607Z,0.90
2019-01-04T18:05:27.000Z,0.90
2019-01-04T18:10:30.388Z,0.90
2019-01-04T18:15:33.763Z,0.90
2019-01-04T18:20:37.140Z,0.90
2019-01-04T18:25:40.519Z,0.90
2019-01-04T18:30:43.909Z,0.90
2019-01-04T18:35:47.295Z,1.00
2019-01-04T18:40:50.680Z,1.00
2019-01-04T18:45:54.062Z,1.00
2019-01-04T18:50:57.451Z,1.00
2019-01-04T18:56:00.839Z,1.00
2019-01-04T19:01:04.219Z,1.00
2019-01-04T19:06:07.607Z,1.00
2019-01-04T19:11:11.751Z,1.00
2019-01-04T19:16:15.123Z,1.00
2019-01-04T19:21:18.507Z,1.00
2019-01-04T19:26:21.900Z,1.00
2019-01-04T19:31:25.283Z,1.10
2019-01-04T19:36:28.675Z,1.10
2019-01-04T19:41:32.105Z,1.10
2019-01-04T19:46:35.483Z,1.10
2019-01-04T19:51:38.877Z,1.10
2019-01-04T19:56:42.266Z,1.10
2019-01-04T20:01:45.722Z,1.10
2019-01-04T20:07:27.911Z,1.10
2019-01-04T20:13:07.344Z,1.10
2019-01-04T20:18:20.507Z,1.10
2019-01-04T20:23:39.736Z,1.20
2019-01-04T20:29:00.902Z,1.10
2019-01-04T20:34:17.983Z,1.20
2019-01-04T20:39:29.136Z,1.20
2019-01-04T20:44:46.271Z,1.20
2019-01-04T20:50:07.339Z,1.20
2019-01-04T20:55:15.314Z,1.20
2019-01-04T21:00:36.618Z,1.20
2019-01-04T21:05:41.639Z,1.20
2019-01-04T21:10:55.365Z,1.20
2019-01-04T21:16:06.304Z,1.20
2019-01-04T21:21:17.015Z,1.20
2019-01-04T21:26:33.760Z,1.20
2019-01-04T21:31:41.175Z,1.30
2019-01-04T21:37:02.472Z,1.30
2019-01-04T21:42:13.267Z,1.30
2019-01-04T21:47:21.232Z,1.30
2019-01-04T21:52:31.939Z,1.30
2019-01-04T21:57:51.757Z,1.30
2019-01-04T22:02:56.779Z,1.30
2019-01-04T22:08:10.753Z,1.30
2019-01-04T22:13:18.679Z,1.30
2019-01-04T22:18:39.803Z,1.30
2019-01-04T22:24:01.087Z,1.40
2019-01-04T22:29:15.063Z,1.40
2019-01-04T22:34:22.739Z,1.40
2019-01-04T22:39:44.199Z,1.40
2019-01-04T22:45:05.487Z,1.40
2019-01-04T22:50:25.555Z,1.40
2019-01-04T22:55:33.515Z,1.40
2019-01-04T23:00:44.899Z,1.40
2019-01-04T23:05:55.469Z,1.40
2019-01-04T23:11:16.731Z,1.40
2019-01-04T23:16:21.758Z,1.50
2019-01-04T23:22:13.650Z,1.50
2019-01-04T23:27:24.755Z,1.50
2019-01-04T23:32:35.484Z,1.50
2019-01-04T23:37:46.435Z,1.50
2019-01-04T23:43:03.520Z,1.50
2019-01-04T23:48:08.539Z,1.50
2019-01-04T23:53:13.627Z,1.50
2019-01-04T23:58:21.309Z,1.50
